sensor_id;sensor_type;location;lat;lon;timestamp;P1;durP1;ratioP1;P2;durP2;ratioP2
12776;SDS011;6452;41.572;23.732;2023-04-01T00:00:56;1.85;;;1.75;;
12776;SDS011;6452;41.572;23.732;2023-04-01T00:03:23;3.28;;;2.40;;
12776;SDS011;6452;41.572;23.732;2023-04-01T00:05:49;1.88;;;1.77;;
12776;SDS011;6452;41.572;23.732;2023-04-01T00:08:15;1.63;;;1.52;;
12776;SDS011;6452;41.572;23.732;2023-04-01T00:10:42;1.65;;;1.48;;
12776;SDS011;6452;41.572;23.732;2023-04-01T00:13:08;2.60;;;2.10;;
12776;SDS011;6452;41.572;23.732;2023-04-01T00:15:34;1.75;;;1.65;;
12776;SDS011;6452;41.572;23.732;2023-04-01T00:18:00;1.58;;;1.48;;
12776;SDS011;6452;41.572;23.732;2023-04-01T00:20:26;2.20;;;1.50;;
12776;SDS011;6452;41.572;23.732;2023-04-01T00:22:53;2.45;;;1.58;;
12776;SDS011;6452;41.572;23.732;2023-04-01T00:25:19;2.67;;;1.77;;
12776;SDS011;6452;41.572;23.732;2023-04-01T00:27:45;2.78;;;1.65;;
12776;SDS011;6452;41.572;23.732;2023-04-01T00:30:12;2.13;;;1.52;;
12776;SDS011;6452;41.572;23.732;2023-04-01T00:32:38;1.67;;;1.58;;
12776;SDS011;6452;41.572;23.732;2023-04-01T00:35:05;1.35;;;1.33;;
12776;SDS011;6452;41.572;23.732;2023-04-01T00:37:34;3.28;;;1.45;;
12776;SDS011;6452;41.572;23.732;2023-04-01T00:40:00;1.38;;;1.38;;
12776;SDS011;6452;41.572;23.732;2023-04-01T00:42:26;4.03;;;1.80;;
12776;SDS011;6452;41.572;23.732;2023-04-01T00:44:54;2.00;;;1.90;;
12776;SDS011;6452;41.572;23.732;2023-04-01T00:47:20;1.92;;;1.80;;
12776;SDS011;6452;41.572;23.732;2023-04-01T00:49:48;2.03;;;1.63;;
12776;SDS011;6452;41.572;23.732;2023-04-01T00:52:15;2.08;;;1.67;;
12776;SDS011;6452;41.572;23.732;2023-04-01T00:54:43;1.80;;;1.70;;
12776;SDS011;6452;41.572;23.732;2023-04-01T00:57:33;1.83;;;1.73;;
12776;SDS011;6452;41.572;23.732;2023-04-01T01:00:00;2.30;;;1.92;;
12776;SDS011;6452;41.572;23.732;2023-04-01T01:02:26;2.05;;;1.95;;
12776;SDS011;6452;41.572;23.732;2023-04-01T01:04:52;1.70;;;1.60;;
12776;SDS011;6452;41.572;23.732;2023-04-01T01:12:13;2.28;;;2.08;;
12776;SDS011;6452;41.572;23.732;2023-04-01T01:34:40;2.28;;;1.80;;
12776;SDS011;6452;41.572;23.732;2023-04-01T01:37:10;2.53;;;2.15;;
12776;SDS011;6452;41.572;23.732;2023-04-01T01:39:38;2.85;;;2.15;;
12776;SDS011;6452;41.572;23.732;2023-04-01T01:42:06;2.13;;;1.90;;
12776;SDS011;6452;41.572;23.732;2023-04-01T01:44:33;1.90;;;1.80;;
12776;SDS011;6452;41.572;23.732;2023-04-01T01:47:00;1.90;;;1.80;;
12776;SDS011;6452;41.572;23.732;2023-04-01T01:49:27;1.70;;;1.60;;
12776;SDS011;6452;41.572;23.732;2023-04-01T01:51:55;2.25;;;2.05;;
12776;SDS011;6452;41.572;23.732;2023-04-01T01:54:22;1.75;;;1.30;;
12776;SDS011;6452;41.572;23.732;2023-04-01T01:56:49;1.70;;;1.60;;
12776;SDS011;6452;41.572;23.732;2023-04-01T01:59:17;1.60;;;1.35;;
12776;SDS011;6452;41.572;23.732;2023-04-01T02:01:44;5.05;;;1.85;;
12776;SDS011;6452;41.572;23.732;2023-04-01T02:04:13;1.58;;;1.50;;
12776;SDS011;6452;41.572;23.732;2023-04-01T02:06:42;1.65;;;1.55;;
12776;SDS011;6452;41.572;23.732;2023-04-01T02:09:10;2.95;;;1.48;;
12776;SDS011;6452;41.572;23.732;2023-04-01T02:11:42;1.60;;;1.50;;
12776;SDS011;6452;41.572;23.732;2023-04-01T02:14:11;1.95;;;1.45;;
12776;SDS011;6452;41.572;23.732;2023-04-01T02:16:41;3.17;;;2.00;;
12776;SDS011;6452;41.572;23.732;2023-04-01T02:19:10;1.50;;;1.50;;
12776;SDS011;6452;41.572;23.732;2023-04-01T02:21:37;3.58;;;1.80;;
12776;SDS011;6452;41.572;23.732;2023-04-01T02:24:04;1.83;;;1.73;;
12776;SDS011;6452;41.572;23.732;2023-04-01T02:26:31;1.83;;;1.73;;
12776;SDS011;6452;41.572;23.732;2023-04-01T02:28:57;1.90;;;1.80;;
12776;SDS011;6452;41.572;23.732;2023-04-01T02:31:24;2.17;;;1.92;;
12776;SDS011;6452;41.572;23.732;2023-04-01T02:33:51;1.85;;;1.55;;
12776;SDS011;6452;41.572;23.732;2023-04-01T02:36:17;2.25;;;1.77;;
12776;SDS011;6452;41.572;23.732;2023-04-01T02:38:43;2.05;;;1.60;;
12776;SDS011;6452;41.572;23.732;2023-04-01T02:41:10;2.13;;;1.50;;
12776;SDS011;6452;41.572;23.732;2023-04-01T02:43:36;1.88;;;1.65;;
12776;SDS011;6452;41.572;23.732;2023-04-01T02:46:01;6.70;;;2.00;;
12776;SDS011;6452;41.572;23.732;2023-04-01T02:48:28;1.85;;;1.75;;
12776;SDS011;6452;41.572;23.732;2023-04-01T02:50:54;1.90;;;1.80;;
12776;SDS011;6452;41.572;23.732;2023-04-01T02:53:20;3.38;;;2.05;;
12776;SDS011;6452;41.572;23.732;2023-04-01T02:55:46;2.30;;;2.00;;
12776;SDS011;6452;41.572;23.732;2023-04-01T02:58:15;2.00;;;1.73;;
12776;SDS011;6452;41.572;23.732;2023-04-01T03:00:41;2.90;;;1.80;;
12776;SDS011;6452;41.572;23.732;2023-04-01T03:03:08;2.05;;;1.73;;
12776;SDS011;6452;41.572;23.732;2023-04-01T03:05:33;2.13;;;2.00;;
12776;SDS011;6452;41.572;23.732;2023-04-01T03:08:00;2.00;;;1.90;;
12776;SDS011;6452;41.572;23.732;2023-04-01T03:10:25;1.83;;;1.73;;
12776;SDS011;6452;41.572;23.732;2023-04-01T03:12:51;3.10;;;1.60;;
12776;SDS011;6452;41.572;23.732;2023-04-01T03:15:18;3.30;;;1.80;;
12776;SDS011;6452;41.572;23.732;2023-04-01T03:17:44;2.13;;;1.92;;
12776;SDS011;6452;41.572;23.732;2023-04-01T03:20:10;1.95;;;1.70;;
12776;SDS011;6452;41.572;23.732;2023-04-01T03:22:37;1.88;;;1.77;;
12776;SDS011;6452;41.572;23.732;2023-04-01T03:25:03;1.98;;;1.88;;
12776;SDS011;6452;41.572;23.732;2023-04-01T03:27:30;5.07;;;2.42;;
12776;SDS011;6452;41.572;23.732;2023-04-01T03:29:56;4.25;;;3.85;;
12776;SDS011;6452;41.572;23.732;2023-04-01T03:32:22;4.45;;;4.05;;
12776;SDS011;6452;41.572;23.732;2023-04-01T03:34:48;4.82;;;4.38;;
12776;SDS011;6452;41.572;23.732;2023-04-01T03:37:14;5.43;;;4.93;;
12776;SDS011;6452;41.572;23.732;2023-04-01T03:39:40;4.75;;;2.92;;
12776;SDS011;6452;41.572;23.732;2023-04-01T03:42:06;3.00;;;2.70;;
12776;SDS011;6452;41.572;23.732;2023-04-01T03:44:33;4.25;;;2.72;;
12776;SDS011;6452;41.572;23.732;2023-04-01T03:46:59;4.30;;;2.53;;
12776;SDS011;6452;41.572;23.732;2023-04-01T03:49:25;5.35;;;2.90;;
12776;SDS011;6452;41.572;23.732;2023-04-01T03:51:51;2.90;;;2.45;;
12776;SDS011;6452;41.572;23.732;2023-04-01T03:54:17;2.25;;;2.13;;
12776;SDS011;6452;41.572;23.732;2023-04-01T03:56:44;4.78;;;3.42;;
12776;SDS011;6452;41.572;23.732;2023-04-01T03:59:10;2.45;;;2.25;;
12776;SDS011;6452;41.572;23.732;2023-04-01T04:01:37;2.28;;;2.17;;
12776;SDS011;6452;41.572;23.732;2023-04-01T04:04:02;3.45;;;2.25;;
12776;SDS011;6452;41.572;23.732;2023-04-01T04:06:28;1.75;;;1.65;;
12776;SDS011;6452;41.572;23.732;2023-04-01T04:08:55;2.35;;;1.77;;
12776;SDS011;6452;41.572;23.732;2023-04-01T04:11:21;2.00;;;1.90;;
12776;SDS011;6452;41.572;23.732;2023-04-01T04:13:47;2.22;;;1.70;;
12776;SDS011;6452;41.572;23.732;2023-04-01T04:16:13;1.30;;;1.30;;
12776;SDS011;6452;41.572;23.732;2023-04-01T04:18:39;2.08;;;1.98;;
12776;SDS011;6452;41.572;23.732;2023-04-01T04:21:06;2.38;;;2.20;;
12776;SDS011;6452;41.572;23.732;2023-04-01T04:23:32;2.78;;;2.58;;
12776;SDS011;6452;41.572;23.732;2023-04-01T04:26:06;2.45;;;2.35;;
12776;SDS011;6452;41.572;23.732;2023-04-01T04:28:32;3.53;;;2.40;;
12776;SDS011;6452;41.572;23.732;2023-04-01T04:30:58;2.42;;;2.33;;
12776;SDS011;6452;41.572;23.732;2023-04-01T04:33:25;2.00;;;1.92;;
12776;SDS011;6452;41.572;23.732;2023-04-01T04:35:51;2.85;;;2.65;;
12776;SDS011;6452;41.572;23.732;2023-04-01T04:38:19;2.65;;;2.45;;
12776;SDS011;6452;41.572;23.732;2023-04-01T04:40:46;2.75;;;2.65;;
12776;SDS011;6452;41.572;23.732;2023-04-01T04:43:12;2.78;;;2.63;;
12776;SDS011;6452;41.572;23.732;2023-04-01T04:45:38;2.83;;;2.63;;
12776;SDS011;6452;41.572;23.732;2023-04-01T04:48:04;2.60;;;2.50;;
12776;SDS011;6452;41.572;23.732;2023-04-01T04:50:31;2.58;;;2.47;;
12776;SDS011;6452;41.572;23.732;2023-04-01T04:52:57;4.20;;;2.72;;
12776;SDS011;6452;41.572;23.732;2023-04-01T04:55:23;3.25;;;2.88;;
12776;SDS011;6452;41.572;23.732;2023-04-01T04:57:49;4.47;;;3.63;;
12776;SDS011;6452;41.572;23.732;2023-04-01T05:00:15;3.85;;;3.33;;
12776;SDS011;6452;41.572;23.732;2023-04-01T05:02:41;8.23;;;4.20;;
12776;SDS011;6452;41.572;23.732;2023-04-01T05:05:07;4.90;;;4.00;;
12776;SDS011;6452;41.572;23.732;2023-04-01T05:07:33;4.65;;;4.22;;
12776;SDS011;6452;41.572;23.732;2023-04-01T05:09:59;4.15;;;3.70;;
12776;SDS011;6452;41.572;23.732;2023-04-01T05:12:25;5.68;;;3.70;;
12776;SDS011;6452;41.572;23.732;2023-04-01T05:14:51;6.25;;;4.05;;
12776;SDS011;6452;41.572;23.732;2023-04-01T05:17:17;4.85;;;4.05;;
12776;SDS011;6452;41.572;23.732;2023-04-01T05:19:43;4.05;;;3.70;;
12776;SDS011;6452;41.572;23.732;2023-04-01T05:22:09;5.05;;;3.42;;
12776;SDS011;6452;41.572;23.732;2023-04-01T05:24:35;6.38;;;4.03;;
12776;SDS011;6452;41.572;23.732;2023-04-01T05:27:02;4.88;;;4.32;;
12776;SDS011;6452;41.572;23.732;2023-04-01T05:29:28;3.97;;;3.53;;
12776;SDS011;6452;41.572;23.732;2023-04-01T05:31:54;5.40;;;3.63;;
12776;SDS011;6452;41.572;23.732;2023-04-01T05:34:20;5.53;;;3.45;;
12776;SDS011;6452;41.572;23.732;2023-04-01T05:36:46;3.33;;;3.13;;
12776;SDS011;6452;41.572;23.732;2023-04-01T05:39:12;4.93;;;3.65;;
12776;SDS011;6452;41.572;23.732;2023-04-01T05:41:38;4.25;;;3.53;;
12776;SDS011;6452;41.572;23.732;2023-04-01T05:44:04;5.50;;;3.60;;
12776;SDS011;6452;41.572;23.732;2023-04-01T05:46:30;3.65;;;3.35;;
12776;SDS011;6452;41.572;23.732;2023-04-01T05:48:56;4.30;;;3.65;;
12776;SDS011;6452;41.572;23.732;2023-04-01T05:51:22;2.22;;;2.13;;
12776;SDS011;6452;41.572;23.732;2023-04-01T05:53:48;1.92;;;1.83;;
12776;SDS011;6452;41.572;23.732;2023-04-01T05:56:14;1.77;;;1.67;;
12776;SDS011;6452;41.572;23.732;2023-04-01T05:58:40;2.45;;;1.77;;
12776;SDS011;6452;41.572;23.732;2023-04-01T06:01:08;4.03;;;1.92;;
12776;SDS011;6452;41.572;23.732;2023-04-01T06:03:34;2.10;;;2.00;;
12776;SDS011;6452;41.572;23.732;2023-04-01T06:05:59;2.17;;;2.00;;
12776;SDS011;6452;41.572;23.732;2023-04-01T06:08:26;1.48;;;1.48;;
12776;SDS011;6452;41.572;23.732;2023-04-01T06:15:50;1.95;;;1.85;;
12776;SDS011;6452;41.572;23.732;2023-04-01T06:26:09;3.88;;;3.00;;
12776;SDS011;6452;41.572;23.732;2023-04-01T06:44:35;3.50;;;2.58;;
12776;SDS011;6452;41.572;23.732;2023-04-01T06:54:47;3.42;;;2.85;;
12776;SDS011;6452;41.572;23.732;2023-04-01T06:59:48;2.60;;;2.40;;
12776;SDS011;6452;41.572;23.732;2023-04-01T07:02:18;3.05;;;2.85;;
12776;SDS011;6452;41.572;23.732;2023-04-01T07:04:51;2.85;;;2.20;;
12776;SDS011;6452;41.572;23.732;2023-04-01T07:10:28;3.03;;;2.05;;
12776;SDS011;6452;41.572;23.732;2023-04-01T07:12:57;1.77;;;1.60;;
12776;SDS011;6452;41.572;23.732;2023-04-01T07:15:43;1.80;;;1.70;;
12776;SDS011;6452;41.572;23.732;2023-04-01T07:18:32;1.70;;;1.60;;
12776;SDS011;6452;41.572;23.732;2023-04-01T07:21:00;1.30;;;1.30;;
12776;SDS011;6452;41.572;23.732;2023-04-01T07:23:32;1.77;;;1.67;;
12776;SDS011;6452;41.572;23.732;2023-04-01T07:26:15;1.60;;;1.50;;
12776;SDS011;6452;41.572;23.732;2023-04-01T07:28:41;1.58;;;1.48;;
12776;SDS011;6452;41.572;23.732;2023-04-01T07:36:47;1.38;;;1.38;;
12776;SDS011;6452;41.572;23.732;2023-04-01T07:46:45;2.00;;;1.80;;
12776;SDS011;6452;41.572;23.732;2023-04-01T07:49:21;2.92;;;1.60;;
12776;SDS011;6452;41.572;23.732;2023-04-01T07:52:06;1.55;;;1.55;;
12776;SDS011;6452;41.572;23.732;2023-04-01T07:57:07;2.08;;;1.88;;
12776;SDS011;6452;41.572;23.732;2023-04-01T07:59:58;1.75;;;1.58;;
12776;SDS011;6452;41.572;23.732;2023-04-01T08:05:03;1.30;;;1.20;;
12776;SDS011;6452;41.572;23.732;2023-04-01T08:13:33;2.00;;;1.90;;
12776;SDS011;6452;41.572;23.732;2023-04-01T08:15:27;2.20;;;2.00;;
12776;SDS011;6452;41.572;23.732;2023-04-01T08:17:58;3.03;;;2.15;;
12776;SDS011;6452;41.572;23.732;2023-04-01T08:25:44;1.83;;;1.73;;
12776;SDS011;6452;41.572;23.732;2023-04-01T08:28:17;1.70;;;1.60;;
12776;SDS011;6452;41.572;23.732;2023-04-01T08:30:47;1.52;;;1.42;;
12776;SDS011;6452;41.572;23.732;2023-04-01T08:33:48;2.47;;;1.67;;
12776;SDS011;6452;41.572;23.732;2023-04-01T08:36:11;1.80;;;1.70;;
12776;SDS011;6452;41.572;23.732;2023-04-01T08:38:42;1.50;;;1.40;;
12776;SDS011;6452;41.572;23.732;2023-04-01T08:41:13;2.25;;;1.77;;
12776;SDS011;6452;41.572;23.732;2023-04-01T08:43:47;1.88;;;1.77;;
12776;SDS011;6452;41.572;23.732;2023-04-01T08:48:55;2.20;;;2.00;;
12776;SDS011;6452;41.572;23.732;2023-04-01T08:57:09;1.77;;;1.67;;
12776;SDS011;6452;41.572;23.732;2023-04-01T09:20:07;1.55;;;1.55;;
12776;SDS011;6452;41.572;23.732;2023-04-01T09:30:37;2.20;;;1.80;;
12776;SDS011;6452;41.572;23.732;2023-04-01T09:38:28;1.45;;;1.40;;
12776;SDS011;6452;41.572;23.732;2023-04-01T09:40:55;1.63;;;1.52;;
12776;SDS011;6452;41.572;23.732;2023-04-01T09:43:26;1.48;;;1.38;;
12776;SDS011;6452;41.572;23.732;2023-04-01T09:46:09;1.30;;;1.30;;
12776;SDS011;6452;41.572;23.732;2023-04-01T09:53:30;2.50;;;1.33;;
12776;SDS011;6452;41.572;23.732;2023-04-01T10:01:18;1.55;;;1.45;;
12776;SDS011;6452;41.572;23.732;2023-04-01T10:17:08;1.65;;;1.40;;
12776;SDS011;6452;41.572;23.732;2023-04-01T10:27:25;2.55;;;1.52;;
12776;SDS011;6452;41.572;23.732;2023-04-01T10:54:08;1.48;;;1.40;;
12776;SDS011;6452;41.572;23.732;2023-04-01T10:57:29;0.98;;;0.98;;
12776;SDS011;6452;41.572;23.732;2023-04-01T11:02:36;1.05;;;1.00;;
12776;SDS011;6452;41.572;23.732;2023-04-01T11:18:22;0.88;;;0.88;;
12776;SDS011;6452;41.572;23.732;2023-04-01T11:23:30;0.80;;;0.70;;
12776;SDS011;6452;41.572;23.732;2023-04-01T11:36:20;1.00;;;1.00;;
12776;SDS011;6452;41.572;23.732;2023-04-01T11:44:20;0.93;;;0.90;;
12776;SDS011;6452;41.572;23.732;2023-04-01T11:47:06;1.13;;;1.13;;
12776;SDS011;6452;41.572;23.732;2023-04-01T11:57:51;1.30;;;0.70;;
12776;SDS011;6452;41.572;23.732;2023-04-01T12:00:33;1.08;;;1.02;;
12776;SDS011;6452;41.572;23.732;2023-04-01T12:08:31;0.77;;;0.77;;
12776;SDS011;6452;41.572;23.732;2023-04-01T12:13:58;3.83;;;0.90;;
12776;SDS011;6452;41.572;23.732;2023-04-01T12:19:13;0.93;;;0.93;;
12776;SDS011;6452;41.572;23.732;2023-04-01T12:22:19;3.33;;;0.93;;
12776;SDS011;6452;41.572;23.732;2023-04-01T12:30:00;0.93;;;0.93;;
12776;SDS011;6452;41.572;23.732;2023-04-01T12:32:34;1.33;;;1.23;;
12776;SDS011;6452;41.572;23.732;2023-04-01T12:35:10;1.10;;;0.90;;
12776;SDS011;6452;41.572;23.732;2023-04-01T12:50:16;1.10;;;1.10;;
12776;SDS011;6452;41.572;23.732;2023-04-01T13:00:24;1.42;;;1.27;;
12776;SDS011;6452;41.572;23.732;2023-04-01T13:08:14;3.20;;;2.50;;
12776;SDS011;6452;41.572;23.732;2023-04-01T13:10:59;2.05;;;1.95;;
12776;SDS011;6452;41.572;23.732;2023-04-01T13:16:12;2.13;;;1.48;;
12776;SDS011;6452;41.572;23.732;2023-04-01T13:26:13;1.60;;;1.50;;
12776;SDS011;6452;41.572;23.732;2023-04-01T13:33:47;1.55;;;1.45;;
12776;SDS011;6452;41.572;23.732;2023-04-01T13:46:31;1.00;;;1.00;;
12776;SDS011;6452;41.572;23.732;2023-04-01T13:49:22;1.42;;;1.33;;
12776;SDS011;6452;41.572;23.732;2023-04-01T13:51:56;0.90;;;0.90;;
12776;SDS011;6452;41.572;23.732;2023-04-01T13:57:05;1.65;;;1.55;;
12776;SDS011;6452;41.572;23.732;2023-04-01T13:59:48;0.85;;;0.85;;
12776;SDS011;6452;41.572;23.732;2023-04-01T14:04:56;0.85;;;0.85;;
12776;SDS011;6452;41.572;23.732;2023-04-01T14:15:21;1.70;;;1.60;;
12776;SDS011;6452;41.572;23.732;2023-04-01T14:22:56;0.80;;;0.80;;
12776;SDS011;6452;41.572;23.732;2023-04-01T14:28:18;1.17;;;1.17;;
12776;SDS011;6452;41.572;23.732;2023-04-01T14:31:12;1.58;;;1.48;;
12776;SDS011;6452;41.572;23.732;2023-04-01T14:39:08;2.63;;;2.42;;
12776;SDS011;6452;41.572;23.732;2023-04-01T14:46:53;2.17;;;1.98;;
12776;SDS011;6452;41.572;23.732;2023-04-01T14:51:50;1.98;;;1.88;;
12776;SDS011;6452;41.572;23.732;2023-04-01T14:54:19;1.38;;;1.27;;
12776;SDS011;6452;41.572;23.732;2023-04-01T14:57:10;0.93;;;0.93;;
12776;SDS011;6452;41.572;23.732;2023-04-01T14:59:35;0.80;;;0.80;;
12776;SDS011;6452;41.572;23.732;2023-04-01T15:02:11;1.15;;;1.10;;
12776;SDS011;6452;41.572;23.732;2023-04-01T15:04:45;2.78;;;2.05;;
12776;SDS011;6452;41.572;23.732;2023-04-01T15:38:36;1.48;;;1.38;;
12776;SDS011;6452;41.572;23.732;2023-04-01T15:41:07;1.80;;;1.70;;
12776;SDS011;6452;41.572;23.732;2023-04-01T15:43:47;1.50;;;1.40;;
12776;SDS011;6452;41.572;23.732;2023-04-01T15:49:08;3.33;;;3.08;;
12776;SDS011;6452;41.572;23.732;2023-04-01T15:56:36;7.53;;;5.50;;
12776;SDS011;6452;41.572;23.732;2023-04-01T15:59:14;3.58;;;3.10;;
12776;SDS011;6452;41.572;23.732;2023-04-01T16:01:53;3.95;;;3.40;;
12776;SDS011;6452;41.572;23.732;2023-04-01T16:04:43;2.30;;;2.15;;
12776;SDS011;6452;41.572;23.732;2023-04-01T16:09:47;3.47;;;3.17;;
12776;SDS011;6452;41.572;23.732;2023-04-01T16:22:39;1.48;;;1.45;;
12776;SDS011;6452;41.572;23.732;2023-04-01T16:27:46;1.98;;;1.88;;
12776;SDS011;6452;41.572;23.732;2023-04-01T16:30:32;1.33;;;1.25;;
12776;SDS011;6452;41.572;23.732;2023-04-01T16:33:15;3.35;;;3.08;;
12776;SDS011;6452;41.572;23.732;2023-04-01T16:43:16;4.40;;;3.90;;
12776;SDS011;6452;41.572;23.732;2023-04-01T16:45:46;11.07;;;6.03;;
12776;SDS011;6452;41.572;23.732;2023-04-01T16:48:20;5.50;;;3.95;;
12776;SDS011;6452;41.572;23.732;2023-04-01T16:51:04;3.80;;;2.78;;
12776;SDS011;6452;41.572;23.732;2023-04-01T16:56:23;3.50;;;3.20;;
12776;SDS011;6452;41.572;23.732;2023-04-01T17:01:28;7.55;;;4.57;;
12776;SDS011;6452;41.572;23.732;2023-04-01T17:03:58;19.10;;;9.05;;
12776;SDS011;6452;41.572;23.732;2023-04-01T17:17:27;8.63;;;6.82;;
12776;SDS011;6452;41.572;23.732;2023-04-01T17:20:12;10.13;;;7.90;;
12776;SDS011;6452;41.572;23.732;2023-04-01T17:25:31;12.90;;;8.05;;
12776;SDS011;6452;41.572;23.732;2023-04-01T17:30:39;5.68;;;3.75;;
12776;SDS011;6452;41.572;23.732;2023-04-01T17:35:39;5.72;;;4.82;;
12776;SDS011;6452;41.572;23.732;2023-04-01T17:39:07;5.15;;;4.65;;
12776;SDS011;6452;41.572;23.732;2023-04-01T17:41:07;8.35;;;6.45;;
12776;SDS011;6452;41.572;23.732;2023-04-01T17:46:02;23.40;;;13.70;;
12776;SDS011;6452;41.572;23.732;2023-04-01T17:56:22;23.00;;;14.90;;
12776;SDS011;6452;41.572;23.732;2023-04-01T17:58:50;20.77;;;12.32;;
12776;SDS011;6452;41.572;23.732;2023-04-01T18:01:26;20.77;;;13.38;;
12776;SDS011;6452;41.572;23.732;2023-04-01T18:09:20;23.33;;;13.48;;
12776;SDS011;6452;41.572;23.732;2023-04-01T18:37:33;2.63;;;2.53;;
12776;SDS011;6452;41.572;23.732;2023-04-01T18:40:13;1.90;;;1.65;;
12776;SDS011;6452;41.572;23.732;2023-04-01T18:45:27;2.10;;;2.00;;
12776;SDS011;6452;41.572;23.732;2023-04-01T18:50:38;4.20;;;3.78;;
12776;SDS011;6452;41.572;23.732;2023-04-01T18:53:22;1.90;;;1.83;;
12776;SDS011;6452;41.572;23.732;2023-04-01T18:55:53;4.47;;;1.77;;
12776;SDS011;6452;41.572;23.732;2023-04-01T18:58:24;1.50;;;1.40;;
12776;SDS011;6452;41.572;23.732;2023-04-01T19:01:04;1.80;;;1.70;;
12776;SDS011;6452;41.572;23.732;2023-04-01T19:06:00;3.58;;;2.08;;
12776;SDS011;6452;41.572;23.732;2023-04-01T19:16:13;1.60;;;1.50;;
12776;SDS011;6452;41.572;23.732;2023-04-01T19:19:11;6.88;;;5.25;;
12776;SDS011;6452;41.572;23.732;2023-04-01T19:21:47;3.17;;;2.47;;
12776;SDS011;6452;41.572;23.732;2023-04-01T19:29:46;6.40;;;4.00;;
12776;SDS011;6452;41.572;23.732;2023-04-01T19:32:23;5.45;;;2.42;;
12776;SDS011;6452;41.572;23.732;2023-04-01T19:42:35;4.75;;;3.70;;
12776;SDS011;6452;41.572;23.732;2023-04-01T19:52:54;6.50;;;4.38;;
12776;SDS011;6452;41.572;23.732;2023-04-01T20:00:27;9.77;;;6.55;;
12776;SDS011;6452;41.572;23.732;2023-04-01T20:03:43;10.13;;;6.05;;
12776;SDS011;6452;41.572;23.732;2023-04-01T20:05:47;8.43;;;5.50;;
12776;SDS011;6452;41.572;23.732;2023-04-01T20:08:31;8.55;;;6.18;;
12776;SDS011;6452;41.572;23.732;2023-04-01T20:16:08;8.07;;;4.50;;
12776;SDS011;6452;41.572;23.732;2023-04-01T20:18:41;5.88;;;5.03;;
12776;SDS011;6452;41.572;23.732;2023-04-01T20:23:45;5.38;;;3.72;;
12776;SDS011;6452;41.572;23.732;2023-04-01T20:26:13;5.03;;;3.95;;
12776;SDS011;6452;41.572;23.732;2023-04-01T20:28:49;5.40;;;3.70;;
12776;SDS011;6452;41.572;23.732;2023-04-01T20:31:36;4.82;;;2.97;;
12776;SDS011;6452;41.572;23.732;2023-04-01T20:39:11;4.53;;;3.00;;
12776;SDS011;6452;41.572;23.732;2023-04-01T20:57:13;2.33;;;2.13;;
12776;SDS011;6452;41.572;23.732;2023-04-01T21:12:48;5.65;;;3.15;;
12776;SDS011;6452;41.572;23.732;2023-04-01T21:25:56;8.27;;;5.32;;
12776;SDS011;6452;41.572;23.732;2023-04-01T21:31:00;4.70;;;3.40;;
12776;SDS011;6452;41.572;23.732;2023-04-01T21:33:41;3.95;;;3.25;;
12776;SDS011;6452;41.572;23.732;2023-04-01T21:38:55;3.70;;;3.38;;
12776;SDS011;6452;41.572;23.732;2023-04-01T21:43:59;3.20;;;2.95;;
12776;SDS011;6452;41.572;23.732;2023-04-01T21:57:42;1.88;;;1.77;;
12776;SDS011;6452;41.572;23.732;2023-04-01T22:05:36;2.10;;;2.00;;
12776;SDS011;6452;41.572;23.732;2023-04-01T22:08:47;2.53;;;2.33;;
12776;SDS011;6452;41.572;23.732;2023-04-01T22:11:10;2.30;;;2.20;;
12776;SDS011;6452;41.572;23.732;2023-04-01T22:13:49;2.85;;;2.03;;
12776;SDS011;6452;41.572;23.732;2023-04-01T22:16:18;21.45;;;10.27;;
12776;SDS011;6452;41.572;23.732;2023-04-01T22:21:22;3.13;;;2.83;;
12776;SDS011;6452;41.572;23.732;2023-04-01T22:24:02;3.15;;;2.30;;
12776;SDS011;6452;41.572;23.732;2023-04-01T22:27:13;2.55;;;2.35;;
12776;SDS011;6452;41.572;23.732;2023-04-01T22:29:30;1.98;;;1.85;;
12776;SDS011;6452;41.572;23.732;2023-04-01T22:32:08;3.53;;;3.22;;
12776;SDS011;6452;41.572;23.732;2023-04-01T22:39:36;2.70;;;2.58;;
12776;SDS011;6452;41.572;23.732;2023-04-01T22:52:27;1.92;;;1.65;;
12776;SDS011;6452;41.572;23.732;2023-04-01T22:55:03;2.08;;;1.88;;
12776;SDS011;6452;41.572;23.732;2023-04-01T23:02:28;3.03;;;2.30;;
12776;SDS011;6452;41.572;23.732;2023-04-01T23:04:57;3.28;;;2.30;;
12776;SDS011;6452;41.572;23.732;2023-04-01T23:10:14;2.67;;;1.77;;
12776;SDS011;6452;41.572;23.732;2023-04-01T23:12:41;2.15;;;1.95;;
12776;SDS011;6452;41.572;23.732;2023-04-01T23:15:11;3.13;;;1.80;;
12776;SDS011;6452;41.572;23.732;2023-04-01T23:17:59;2.72;;;2.53;;
12776;SDS011;6452;41.572;23.732;2023-04-01T23:25:56;3.03;;;2.58;;
12776;SDS011;6452;41.572;23.732;2023-04-01T23:30:54;2.53;;;1.98;;
12776;SDS011;6452;41.572;23.732;2023-04-01T23:33:21;4.35;;;2.08;;
12776;SDS011;6452;41.572;23.732;2023-04-01T23:38:16;1.77;;;1.67;;
12776;SDS011;6452;41.572;23.732;2023-04-01T23:40:42;1.63;;;1.55;;
12776;SDS011;6452;41.572;23.732;2023-04-01T23:46:03;1.42;;;1.33;;
12776;SDS011;6452;41.572;23.732;2023-04-01T23:48:34;1.90;;;1.35;;
12776;SDS011;6452;41.572;23.732;2023-04-01T23:51:01;1.80;;;1.70;;
12776;SDS011;6452;41.572;23.732;2023-04-01T23:53:32;3.08;;;2.28;;
12776;SDS011;6452;41.572;23.732;2023-04-01T23:55:58;2.40;;;2.20;;
12776;SDS011;6452;41.572;23.732;2023-04-01T23:58:25;3.45;;;1.85;;
